Latest Weather Observations for Little Bay

IDN60901

Issued at 3:21 pm EST Thursday 28 May 2020 (issued every 10 minutes, with the page automatically refreshed every 10 minutes)

About weather observations | Map of Sydney area stations | Latest observations for Sydney area | Other Formats
Station Details ID: 066051 Name: LITTLE BAY (THE COAST GOLF CLUB) Lat: -33.98 Lon: 151.25 Height: 22.0 m
Data from the previous 72 hours. | See also: Recent months at Little Bay
Date/Time
EST
Temp
°C
App
Temp
°C
Dew
Point
°C
Rel
Hum
%
Delta-T
°C
Wind Press
QNH
hPa
Press
MSL
hPa
Rain since
9am
mm
Dir  Spd
km/h
Gust
km/h
Spd
kts
Gust
kts
28/03:00pm - - - - - SSE 11 15 6 8 - - -
28/02:30pm - - - - - SSE 7 11 4 6 - - -
28/02:00pm - - - - - SSE 9 13 5 7 - - -
28/01:30pm - - - - - WSW 7 11 4 6 - - -
28/01:00pm - - - - - W 11 17 6 9 - - -
28/12:30pm - - - - - W 13 19 7 10 - - -
28/12:00pm - - - - - W 13 20 7 11 - - -
28/11:30am - - - - - W 17 22 9 12 - - -
28/11:00am - - - - - W 17 22 9 12 - - -
28/10:30am - - - - - W 13 20 7 11 - - -
28/10:00am - - - - - W 15 20 8 11 - - -
28/09:30am - - - - - WNW 13 20 7 11 - - -
28/09:00am - - - - - WNW 13 20 7 11 - - -
28/08:30am - - - - - WNW 13 17 7 9 - - -
28/08:00am - - - - - WNW 11 17 6 9 - - -
28/07:30am - - - - - WNW 13 19 7 10 - - -
28/07:00am - - - - - WNW 13 17 7 9 - - -
28/06:30am - - - - - WNW 13 17 7 9 - - -
28/06:00am - - - - - WNW 13 17 7 9 - - -
28/05:30am - - - - - WNW 11 17 6 9 - - -
28/05:00am - - - - - WNW 9 11 5 6 - - -
28/04:30am - - - - - WNW 7 9 4 5 - - -
28/04:00am - - - - - WNW 7 9 4 5 - - -
28/03:30am - - - - - WNW 7 9 4 5 - - -
28/03:00am - - - - - WNW 7 9 4 5 - - -
28/02:30am - - - - - WNW 7 11 4 6 - - -
28/02:00am - - - - - WNW 9 11 5 6 - - -
28/01:30am - - - - - WNW 9 13 5 7 - - -
28/01:00am - - - - - WNW 11 13 6 7 - - -
28/12:30am - - - - - WNW 11 13 6 7 - - -
28/12:00am - - - - - WNW 7 11 4 6 - - -
 
Date/Time
EST
Temp
°C
App
Temp
°C
Dew
Point
°C
Rel
Hum
%
Delta-T
°C
Wind Press
QNH
hPa
Press
MSL
hPa
Rain since
9am
mm
Dir  Spd
km/h
Gust
km/h
Spd
kts
Gust
kts
27/11:30pm - - - - - W 9 11 5 6 - - -
27/11:00pm - - - - - W 7 9 4 5 - - -
27/10:30pm - - - - - W 9 11 5 6 - - -
27/10:00pm - - - - - WNW 7 11 4 6 - - -
27/09:30pm - - - - - WNW 7 9 4 5 - - -
27/09:00pm - - - - - WNW 7 9 4 5 - - -
27/08:30pm - - - - - WNW 6 7 3 4 - - -
27/08:00pm - - - - - W 6 9 3 5 - - -
27/07:30pm - - - - - WSW 6 6 3 3 - - -
27/07:00pm - - - - - SSW 6 6 3 3 - - -
27/06:30pm - - - - - SSW 6 7 3 4 - - -
27/06:00pm - - - - - SSW 4 6 2 3 - - -
27/05:30pm - - - - - SSW 6 9 3 5 - - -
27/05:00pm - - - - - S 6 7 3 4 - - -
27/04:30pm - - - - - S 6 9 3 5 - - -
27/04:00pm - - - - - S 7 13 4 7 - - -
27/03:30pm - - - - - S 9 11 5 6 - - -
27/03:00pm - - - - - S 11 15 6 8 - - -
27/02:30pm - - - - - S 11 15 6 8 - - -
27/02:00pm - - - - - S 13 17 7 9 - - -
27/01:30pm - - - - - S 13 20 7 11 - - -
27/01:00pm - - - - - S 13 20 7 11 - - -
27/12:30pm - - - - - S 15 19 8 10 - - -
27/12:00pm - - - - - SSW 13 19 7 10 - - -
27/11:30am - - - - - S 11 17 6 9 - - -
27/11:00am - - - - - S 11 17 6 9 - - -
27/10:30am - - - - - SSE 11 17 6 9 - - -
27/10:00am - - - - - S 13 20 7 11 - - -
27/09:30am - - - - - SSW 11 19 6 10 - - -
27/09:00am - - - - - WNW 7 11 4 6 - - -
27/08:30am - - - - - WNW 11 15 6 8 - - -
27/08:00am - - - - - W 9 11 5 6 - - -
27/07:30am - - - - - WSW 6 9 3 5 - - -
27/07:00am - - - - - W 9 13 5 7 - - -
27/06:30am - - - - - W 11 15 6 8 - - -
27/06:00am - - - - - W 9 13 5 7 - - -
27/05:30am - - - - - WNW 9 15 5 8 - - -
27/05:00am - - - - - WNW 11 15 6 8 - - -
27/04:30am - - - - - W 9 11 5 6 - - -
27/04:00am - - - - - W 9 15 5 8 - - -
27/03:30am - - - - - W 9 15 5 8 - - -
27/03:00am - - - - - W 9 15 5 8 - - -
27/02:30am - - - - - NW 9 17 5 9 - - -
27/02:00am - - - - - WNW 17 28 9 15 - - -
27/01:30am - - - - - SSW 11 19 6 10 - - -
27/01:00am - - - - - S 19 26 10 14 - - -
27/12:30am - - - - - WSW 9 11 5 6 - - -
27/12:00am - - - - - S 4 6 2 3 - - -
 
Date/Time
EST
Temp
°C
App
Temp
°C
Dew
Point
°C
Rel
Hum
%
Delta-T
°C
Wind Press
QNH
hPa
Press
MSL
hPa
Rain since
9am
mm
Dir  Spd
km/h
Gust
km/h
Spd
kts
Gust
kts
26/11:30pm - - - - - SE 13 24 7 13 - - -
26/11:00pm - - - - - E 20 28 11 15 - - -
26/10:30pm - - - - - SE 28 39 15 21 - - -
26/10:00pm - - - - - SE 33 41 18 22 - - -
26/09:30pm - - - - - SSE 22 30 12 16 - - -
26/09:00pm - - - - - SSE 20 26 11 14 - - -
26/08:30pm - - - - - S 19 24 10 13 - - -
26/08:00pm - - - - - S 19 26 10 14 - - -
26/07:30pm - - - - - S 17 22 9 12 - - -
26/07:00pm - - - - - SSE 22 30 12 16 - - -
26/06:30pm - - - - - SSE 22 30 12 16 - - -
26/06:00pm - - - - - SE 22 30 12 16 - - -
26/05:30pm - - - - - SE 24 32 13 17 - - -
26/05:00pm - - - - - SSE 22 32 12 17 - - -
26/04:30pm - - - - - SSE 28 35 15 19 - - -
26/04:00pm - - - - - SE 30 39 16 21 - - -
26/03:30pm - - - - - SSE 26 35 14 19 - - -
26/03:00pm - - - - - S 22 33 12 18 - - -
26/02:30pm - - - - - S 22 32 12 17 - - -
26/02:00pm - - - - - SSE 32 43 17 23 - - -
26/01:30pm - - - - - SSE 26 35 14 19 - - -
26/01:00pm - - - - - SSE 28 39 15 21 - - -
26/12:30pm - - - - - SSE 32 39 17 21 - - -
26/12:00pm - - - - - SE 33 43 18 23 - - -
26/11:30am - - - - - SE 32 43 17 23 - - -
26/11:00am - - - - - SE 33 41 18 22 - - -
26/10:30am - - - - - SE 30 41 16 22 - - -
26/10:00am - - - - - SE 28 33 15 18 - - -
26/09:30am - - - - - SE 32 39 17 21 - - -
26/09:00am - - - - - SE 30 37 16 20 - - -
26/08:30am - - - - - SW 20 32 11 17 - - -
26/08:00am - - - - - SSW 26 37 14 20 - - -
26/07:30am - - - - - SSW 30 41 16 22 - - -
26/07:00am - - - - - SSW 30 39 16 21 - - -
26/06:30am - - - - - SSW 28 41 15 22 - - -
26/06:00am - - - - - SSW 33 46 18 25 - - -
26/05:30am - - - - - SSW 35 46 19 25 - - -
26/05:00am - - - - - SSW 30 48 16 26 - - -
26/04:50am - - - - - SSW 30 48 16 26 - - -
26/04:30am - - - - - SSW 33 50 18 27 - - -
26/04:12am - - - - - SSW 35 54 19 29 - - -
26/04:00am - - - - - SSW 33 52 18 28 - - -
26/03:32am - - - - - SSW 33 52 18 28 - - -
26/03:30am - - - - - SSW 35 52 19 28 - - -
26/03:00am - - - - - SSW 33 48 18 26 - - -
26/02:30am - - - - - SSW 33 48 18 26 - - -
26/02:00am - - - - - SSW 39 56 21 30 - - -
26/01:44am - - - - - SSW 33 54 18 29 - - -
26/01:30am - - - - - SSW 37 54 20 29 - - -
26/01:08am - - - - - SSW 37 56 20 30 - - -
26/01:00am - - - - - SSW 35 52 19 28 - - -
26/12:35am - - - - - SSW 33 57 18 31 - - -
26/12:30am - - - - - SSW 35 50 19 27 - - -
26/12:00am - - - - - SSW 35 46 19 25 - - -
 
Date/Time
EST
Temp
°C
App
Temp
°C
Dew
Point
°C
Rel
Hum
%
Delta-T
°C
Wind Press
QNH
hPa
Press
MSL
hPa
Rain since
9am
mm
Dir  Spd
km/h
Gust
km/h
Spd
kts
Gust
kts
25/11:35pm - - - - - SSW 37 57 20 31 - - -
25/11:30pm - - - - - SSW 39 54 21 29 - - -
25/11:06pm - - - - - SSW 30 50 16 27 - - -
25/11:00pm - - - - - SSW 35 46 19 25 - - -
25/10:34pm - - - - - SSW 35 54 19 29 - - -
25/10:30pm - - - - - SSW 35 54 19 29 - - -
25/10:02pm - - - - - SSW 35 56 19 30 - - -
25/10:00pm - - - - - SSW 37 56 20 30 - - -
25/09:37pm - - - - - SSW 28 57 15 31 - - -
25/09:30pm - - - - - SW 24 35 13 19 - - -
25/09:02pm - - - - - SSW 30 50 16 27 - - -
25/09:00pm - - - - - SSW 30 43 16 23 - - -
25/08:30pm - - - - - S 37 57 20 31 - - -
25/08:00pm - - - - - SSW 39 57 21 31 - - -
25/07:30pm - - - - - SSW 39 57 21 31 - - -
25/07:17pm - - - - - SSW 37 61 20 33 - - -
25/07:00pm - - - - - SSW 35 52 19 28 - - -
25/06:33pm - - - - - SSW 39 57 21 31 - - -
25/06:30pm - - - - - SSW 35 54 19 29 - - -
25/06:14pm - - - - - SSW 37 57 20 31 - - -
25/06:00pm - - - - - SSW 35 52 19 28 - - -
25/05:30pm - - - - - SSW 43 67 23 36 - - -
25/05:11pm - - - - - SSW 39 57 21 31 - - -
25/05:00pm - - - - - SSW 41 59 22 32 - - -
25/04:30pm - - - - - SSW 41 61 22 33 - - -
25/04:12pm - - - - - SSW 43 61 23 33 - - -
25/04:00pm - - - - - SSW 44 59 24 32 - - -
25/03:37pm - - - - - SSW 44 67 24 36 - - -
25/03:30pm - - - - - SSW 48 63 26 34 - - -

Latest Capital City Observations: Canberra | Sydney | Melbourne | Brisbane | Adelaide | Perth | Hobart | Darwin

Other formats

Comma delimited format used in spreadsheet applications
http://www.bom.gov.au/fwo/IDN60901/IDN60901.94780.axf

JavaScript Object Notation format (JSON) in row-major order
http://www.bom.gov.au/fwo/IDN60901/IDN60901.94780.json

Data quality

Most of these data are generated automatically and are frequently updated. Quality checks on data are not normally performed. It is possible for incorrect values to appear. Refer to information at About Latest Weather Observations and please check the disclaimer before using these data.